Time;durP1;ratioP1;P1;durP2;ratioP2;P2;SDS_P1;SDS_P2;PMS_P1;PMS_P2;Temp;Humidity;BMP_temperature;BMP_pressure;BME280_temperature;BME280_humidity;BME280_pressure;Samples;Min_cycle;Max_cycle;Signal;HPM_P1;HPM_P2
2022/02/03 00:02:19;;;;;;;5.25;4.85;;;8.40;99.90;;;;;;4980849;28;20228;-60
2022/02/03 00:04:56;;;;;;;4.80;4.40;;;8.40;99.90;;;;;;4989619;28;20353;-60
2022/02/03 00:07:35;;;;;;;5.25;4.68;;;8.50;99.90;;;;;;5009612;28;20207;-60
2022/02/03 00:10:30;;;;;;;5.80;4.95;;;8.50;99.90;;;;;;5018487;28;20203;-60
2022/02/03 00:24:35;;;;;;;5.82;5.32;;;8.40;99.90;;;;;;4998719;28;20203;-58
2022/02/03 00:27:16;;;;;;;5.03;4.63;;;8.40;99.90;;;;;;5002088;28;20204;-60
2022/02/03 00:29:57;;;;;;;5.10;4.53;;;8.30;99.90;;;;;;5007209;28;20220;-60
2022/02/03 00:35:40;;;;;;;4.50;4.10;;;8.40;99.90;;;;;;4947718;29;20202;-60
2022/02/03 00:38:25;;;;;;;5.25;4.47;;;8.40;99.90;;;;;;4944024;29;20202;-60
2022/02/03 00:49:20;;;;;;;4.78;4.45;;;8.40;99.90;;;;;;4945275;29;20548;-60
2022/02/03 00:51:53;;;;;;;4.60;4.20;;;8.30;99.90;;;;;;4947449;29;20216;-60
2022/02/03 00:54:25;;;;;;;4.45;4.05;;;8.30;99.90;;;;;;4943957;29;20205;-61
2022/02/03 00:57:00;;;;;;;4.20;3.80;;;8.30;99.90;;;;;;4943790;29;20265;-60
2022/02/03 00:59:37;;;;;;;4.05;3.70;;;8.30;99.90;;;;;;4944301;29;20205;-61
2022/02/03 01:02:13;;;;;;;4.35;4.00;;;8.30;99.90;;;;;;4946938;29;20226;-61
2022/02/03 01:04:45;;;;;;;3.85;3.55;;;8.30;99.90;;;;;;4943930;29;20230;-58
2022/02/03 01:07:18;;;;;;;4.45;4.15;;;8.30;99.90;;;;;;4943667;29;20210;-58
2022/02/03 01:10:02;;;;;;;4.55;4.20;;;8.30;99.90;;;;;;4982649;28;20207;-59
2022/02/03 01:12:41;;;;;;;4.43;4.13;;;8.40;99.90;;;;;;5012614;28;20290;-59
2022/02/03 01:15:21;;;;;;;4.90;4.50;;;8.50;99.90;;;;;;5012279;28;20228;-59
2022/02/03 01:18:08;;;;;;;5.00;4.60;;;8.40;99.90;;;;;;4996717;28;20266;-58
2022/02/03 01:21:21;;;;;;;5.57;5.18;;;8.30;99.90;;;;;;5005847;28;20199;-59
2022/02/03 01:36:55;;;;;;;5.75;5.32;;;8.40;99.90;;;;;;4959464;29;20212;-59
2022/02/03 01:44:01;;;;;;;7.38;6.78;;;8.20;99.90;;;;;;4952469;29;20193;-60
2022/02/03 01:46:49;;;;;;;7.80;7.00;;;8.20;99.90;;;;;;4957566;29;20206;-61
2022/02/03 01:49:39;;;;;;;7.00;6.40;;;8.20;99.90;;;;;;4944806;29;20202;-62
2022/02/03 01:52:16;;;;;;;7.38;6.72;;;8.20;99.90;;;;;;4955247;29;20613;-65
2022/02/03 01:54:53;;;;;;;7.85;7.15;;;8.30;99.90;;;;;;4945572;29;20202;-66
2022/02/03 01:57:30;;;;;;;7.00;6.30;;;8.20;99.90;;;;;;4955575;29;20209;-64
2022/02/03 02:00:06;;;;;;;7.95;7.15;;;8.30;99.90;;;;;;4958474;29;20201;-64
2022/02/03 02:02:40;;;;;;;7.57;6.97;;;8.30;99.90;;;;;;4960291;29;21636;-63
2022/02/03 02:05:32;;;;;;;8.52;7.72;;;8.30;99.90;;;;;;4957669;29;20628;-67
2022/02/03 02:08:16;;;;;;;8.48;7.68;;;8.30;99.90;;;;;;5004972;28;20210;-65
2022/02/03 02:11:11;;;;;;;7.70;6.90;;;8.30;99.90;;;;;;5003872;28;20268;-64
2022/02/03 02:14:03;;;;;;;7.53;6.82;;;8.20;99.90;;;;;;4989649;28;20338;-62
2022/02/03 02:19:58;;;;;;;8.07;7.38;;;8.30;99.90;;;;;;4958525;28;20744;-65
2022/02/03 02:40:29;;;;;;;6.97;6.40;;;8.30;99.90;;;;;;4881829;29;20341;-60
2022/02/03 02:43:08;;;;;;;7.55;6.85;;;8.30;99.90;;;;;;4874713;29;20224;-60
2022/02/03 02:45:48;;;;;;;7.85;7.15;;;8.30;99.90;;;;;;4871270;29;20227;-60
2022/02/03 02:48:32;;;;;;;7.88;7.28;;;8.30;99.90;;;;;;4869630;29;20299;-60
2022/02/03 02:51:09;;;;;;;8.10;7.30;;;8.30;99.90;;;;;;4908398;29;20266;-60
2022/02/03 02:54:08;;;;;;;8.98;8.10;;;8.30;99.90;;;;;;4935293;29;20288;-60
2022/02/03 02:57:01;;;;;;;8.40;7.70;;;8.30;99.90;;;;;;4927462;29;20206;-59
2022/02/03 03:00:00;;;;;;;8.05;7.25;;;8.30;99.90;;;;;;4928346;29;20198;-60
2022/02/03 03:03:10;;;;;;;8.23;7.43;;;8.40;99.90;;;;;;4920264;29;20313;-60
2022/02/03 03:31:28;;;;;;;7.70;7.00;;;8.40;99.90;;;;;;4953380;29;20209;-60
2022/02/03 03:34:11;;;;;;;8.40;7.60;;;8.50;99.90;;;;;;4957703;29;20201;-60
2022/02/03 03:36:44;;;;;;;7.53;6.82;;;8.50;99.90;;;;;;4949703;29;20220;-60
2022/02/03 03:39:17;;;;;;;8.60;7.80;;;8.50;99.90;;;;;;4954121;29;20201;-68
2022/02/03 03:41:49;;;;;;;9.23;8.43;;;8.60;99.90;;;;;;4942648;29;20229;-60
2022/02/03 03:44:21;;;;;;;8.20;7.40;;;8.50;99.90;;;;;;4951269;29;20268;-60
2022/02/03 03:46:53;;;;;;;8.57;7.70;;;8.40;99.90;;;;;;4961401;29;20292;-60
2022/02/03 03:49:37;;;;;;;58.97;16.50;;;8.50;99.90;;;;;;4957259;29;20283;-60
2022/02/03 03:52:14;;;;;;;9.13;8.25;;;8.50;99.90;;;;;;4958670;29;20241;-61
2022/02/03 03:54:58;;;;;;;8.30;7.55;;;8.50;99.90;;;;;;4954147;29;20205;-60
2022/02/03 03:57:46;;;;;;;8.70;7.80;;;8.40;99.90;;;;;;4942672;29;20198;-60
2022/02/03 04:00:40;;;;;;;8.70;7.90;;;8.30;99.90;;;;;;4957099;29;20201;-60
2022/02/03 04:39:28;;;;;;;10.50;9.50;;;8.30;99.90;;;;;;4888248;29;20575;-70
2022/02/03 04:42:34;;;;;;;11.15;10.05;;;8.20;99.90;;;;;;4887060;29;20449;-67
2022/02/03 04:57:25;;;;;;;11.18;10.07;;;8.30;99.90;;;;;;4903613;29;20217;-70
2022/02/03 05:03:35;;;;;;;12.40;11.20;;;8.20;99.90;;;;;;4904560;29;20290;-60
2022/02/03 05:06:22;;;;;;;19.95;18.25;;;8.30;99.90;;;;;;4904521;29;20239;-63
2022/02/03 05:09:23;;;;;;;29.10;26.40;;;8.30;99.90;;;;;;4907072;29;20679;-66
2022/02/03 05:12:18;;;;;;;30.88;27.98;;;8.20;99.90;;;;;;5004045;28;20237;-61
2022/02/03 05:25:01;;;;;;;10.35;9.35;;;8.20;99.90;;;;;;4978445;28;20319;-60
2022/02/03 05:46:25;;;;;;;9.02;7.88;;;8.20;99.90;;;;;;4940204;29;20206;-60
2022/02/03 05:49:06;;;;;;;9.70;8.20;;;8.20;99.90;;;;;;4942645;29;20236;-61
2022/02/03 05:54:48;;;;;;;10.75;9.57;;;8.10;99.90;;;;;;4942355;29;20285;-61
2022/02/03 06:03:28;;;;;;;8.00;7.22;;;8.20;99.90;;;;;;4942228;29;20254;-61
2022/02/03 06:06:14;;;;;;;8.95;8.10;;;8.10;99.90;;;;;;4937114;29;20229;-60
2022/02/03 06:08:56;;;;;;;9.35;8.43;;;8.00;99.90;;;;;;4924612;29;20233;-60
2022/02/03 06:14:21;;;;;;;7.85;6.88;;;7.90;99.90;;;;;;4932042;29;20587;-60
2022/02/03 06:17:05;;;;;;;8.05;7.03;;;7.80;99.90;;;;;;4931277;29;20293;-60
2022/02/03 06:22:44;;;;;;;10.00;7.10;;;7.80;99.90;;;;;;4909772;29;20230;-60
2022/02/03 06:28:04;;;;;;;7.70;6.90;;;7.80;99.90;;;;;;4909064;29;20206;-61
2022/02/03 06:30:36;;;;;;;7.30;6.45;;;7.70;99.90;;;;;;4908959;29;20227;-60
2022/02/03 06:33:09;;;;;;;6.90;6.30;;;7.70;99.90;;;;;;4919686;29;20207;-60
2022/02/03 06:35:40;;;;;;;6.97;6.28;;;7.70;99.90;;;;;;4916728;29;20214;-60
2022/02/03 06:38:11;;;;;;;8.00;6.53;;;7.70;99.90;;;;;;4904342;29;20199;-61
2022/02/03 06:40:41;;;;;;;7.28;6.57;;;7.70;99.90;;;;;;4906314;29;20209;-60
2022/02/03 06:43:14;;;;;;;6.85;6.20;;;7.70;99.90;;;;;;4909621;29;20238;-60
2022/02/03 06:45:57;;;;;;;9.18;6.35;;;7.70;99.90;;;;;;4906423;29;20213;-61
2022/02/03 06:48:30;;;;;;;6.50;5.40;;;7.70;99.90;;;;;;4908726;29;20225;-60
2022/02/03 06:51:08;;;;;;;6.47;5.90;;;7.80;99.90;;;;;;4917173;29;20234;-59
2022/02/03 06:53:41;;;;;;;5.10;4.60;;;7.80;99.90;;;;;;4936065;28;20236;-60
2022/02/03 06:56:22;;;;;;;9.10;6.22;;;7.80;99.90;;;;;;4954354;28;20540;-59
2022/02/03 06:58:57;;;;;;;6.85;5.60;;;7.80;99.90;;;;;;4966649;28;20277;-60
2022/02/03 07:01:35;;;;;;;6.97;5.43;;;7.80;99.90;;;;;;4965906;28;20223;-60
2022/02/03 07:04:15;;;;;;;5.93;4.70;;;7.80;99.90;;;;;;4965379;28;20229;-60
2022/02/03 07:06:46;;;;;;;6.05;4.43;;;7.80;99.90;;;;;;5002230;28;20703;-60
2022/02/03 07:09:17;;;;;;;6.03;5.10;;;7.80;99.90;;;;;;5002930;28;20196;-59
2022/02/03 07:11:48;;;;;;;5.97;4.80;;;7.80;99.90;;;;;;5015322;28;20217;-60
2022/02/03 07:14:20;;;;;;;4.72;4.32;;;7.70;99.90;;;;;;5010068;28;20200;-60
2022/02/03 07:16:53;;;;;;;4.30;3.90;;;7.70;99.90;;;;;;5006390;28;20272;-60
2022/02/03 07:19:24;;;;;;;5.35;3.85;;;7.70;99.90;;;;;;5003805;28;20210;-60
2022/02/03 07:21:54;;;;;;;4.60;4.28;;;7.60;99.90;;;;;;5003878;28;20188;-59
2022/02/03 07:24:25;;;;;;;5.40;4.40;;;7.60;99.90;;;;;;5002602;28;20231;-59
2022/02/03 07:26:56;;;;;;;6.03;4.30;;;7.60;99.90;;;;;;5007482;28;20200;-59
2022/02/03 07:29:27;;;;;;;3.90;3.60;;;7.60;99.90;;;;;;5008769;28;20218;-59
2022/02/03 07:32:01;;;;;;;3.78;3.47;;;7.60;99.90;;;;;;5001311;28;20223;-59
2022/02/03 07:34:32;;;;;;;3.42;3.20;;;7.60;99.90;;;;;;5002542;28;20207;-59
2022/02/03 07:37:03;;;;;;;3.22;3.00;;;7.60;99.90;;;;;;5007584;28;20190;-59
2022/02/03 07:39:34;;;;;;;4.20;3.50;;;7.50;99.90;;;;;;5000393;28;20214;-59
2022/02/03 07:42:06;;;;;;;3.90;3.50;;;7.50;99.90;;;;;;5014850;28;20210;-59
2022/02/03 07:44:37;;;;;;;3.10;2.80;;;7.50;99.90;;;;;;5015083;28;20295;-59
2022/02/03 07:47:10;;;;;;;4.47;3.13;;;7.50;99.90;;;;;;5000326;28;20202;-59
2022/02/03 07:49:40;;;;;;;3.15;2.85;;;7.50;99.90;;;;;;5016993;28;20188;-59
2022/02/03 07:52:11;;;;;;;3.45;3.15;;;7.50;99.90;;;;;;5007483;28;20188;-59
2022/02/03 07:54:42;;;;;;;2.80;2.50;;;7.40;99.90;;;;;;5012940;28;20285;-59
2022/02/03 07:57:13;;;;;;;3.75;3.15;;;7.40;99.90;;;;;;5016137;28;20206;-59
2022/02/03 07:59:44;;;;;;;4.20;3.63;;;7.50;99.90;;;;;;5017431;28;20557;-59
2022/02/03 08:02:17;;;;;;;4.00;3.60;;;7.50;99.90;;;;;;5006288;28;20228;-59
2022/02/03 08:04:49;;;;;;;4.55;3.55;;;7.50;99.90;;;;;;5002798;28;20315;-59
2022/02/03 08:07:20;;;;;;;4.00;3.70;;;7.50;99.90;;;;;;5006931;28;20335;-59
2022/02/03 08:09:57;;;;;;;4.53;4.13;;;7.60;99.90;;;;;;5008494;28;20203;-59
2022/02/03 08:12:32;;;;;;;4.78;4.03;;;7.60;99.90;;;;;;5016202;28;20231;-59
2022/02/03 08:15:03;;;;;;;5.53;5.03;;;7.50;99.90;;;;;;5005346;28;20540;-59
2022/02/03 08:17:40;;;;;;;5.03;4.50;;;7.50;99.90;;;;;;5017806;28;20257;-59
2022/02/03 08:20:15;;;;;;;5.20;4.68;;;7.60;99.90;;;;;;5014746;28;20200;-59
2022/02/03 08:22:52;;;;;;;4.95;4.55;;;7.60;99.90;;;;;;5006821;28;20607;-59
2022/02/03 08:25:26;;;;;;;6.05;5.10;;;7.50;99.90;;;;;;5006171;28;20230;-59
2022/02/03 08:28:28;;;;;;;5.82;5.22;;;7.50;99.90;;;;;;5014986;28;20207;-59
2022/02/03 08:31:01;;;;;;;5.82;5.28;;;7.60;99.90;;;;;;5005475;28;20275;-60
2022/02/03 08:33:33;;;;;;;6.60;4.97;;;7.50;99.90;;;;;;5016869;28;20206;-59
2022/02/03 08:36:07;;;;;;;5.63;5.10;;;7.60;99.90;;;;;;5005336;28;20648;-60
2022/02/03 08:38:46;;;;;;;7.03;5.70;;;7.50;99.90;;;;;;5007161;28;20204;-59
2022/02/03 08:41:18;;;;;;;5.93;5.32;;;7.50;99.90;;;;;;5009895;28;20230;-60
2022/02/03 08:43:49;;;;;;;6.60;6.00;;;7.50;99.90;;;;;;5018544;28;21750;-59
2022/02/03 08:46:24;;;;;;;7.13;6.43;;;7.50;99.90;;;;;;5006654;28;20338;-60
2022/02/03 08:48:57;;;;;;;6.18;5.57;;;7.50;99.90;;;;;;5006924;28;20202;-60
2022/02/03 08:51:28;;;;;;;5.90;5.40;;;7.50;99.90;;;;;;5007434;28;20233;-59
2022/02/03 08:54:06;;;;;;;6.47;5.60;;;7.50;99.90;;;;;;5012013;28;20301;-59
2022/02/03 08:56:45;;;;;;;7.55;6.85;;;7.50;99.90;;;;;;5017673;28;20191;-59
2022/02/03 09:38:55;;;;;;;5.60;5.10;;;7.40;99.90;;;;;;5009688;28;20192;-60
2022/02/03 09:41:49;;;;;;;5.22;4.82;;;7.40;99.90;;;;;;5005149;28;20214;-60
2022/02/03 09:50:35;;;;;;;4.65;4.25;;;7.40;99.90;;;;;;4940374;29;20210;-60
2022/02/03 09:53:27;;;;;;;4.85;4.43;;;7.50;99.90;;;;;;4940751;29;20217;-60
2022/02/03 09:56:10;;;;;;;5.70;4.03;;;7.50;99.90;;;;;;4943721;29;20210;-60
2022/02/03 09:58:53;;;;;;;3.65;3.35;;;7.40;99.90;;;;;;4938397;29;20205;-60
2022/02/03 10:01:34;;;;;;;3.83;3.53;;;7.40;99.90;;;;;;4941586;29;20637;-60
2022/02/03 10:04:11;;;;;;;4.28;3.80;;;7.40;99.90;;;;;;4943463;29;20608;-60
2022/02/03 10:06:55;;;;;;;4.32;3.97;;;7.40;99.90;;;;;;4940813;29;20325;-59
2022/02/03 10:09:38;;;;;;;3.63;3.40;;;7.40;99.90;;;;;;4942855;29;20201;-60
2022/02/03 10:12:13;;;;;;;3.50;3.20;;;7.40;99.90;;;;;;4943485;29;20210;-60
2022/02/03 10:14:45;;;;;;;5.32;3.90;;;7.40;99.90;;;;;;4939764;29;20235;-59
2022/02/03 10:17:19;;;;;;;3.95;3.72;;;7.30;99.90;;;;;;4942669;29;20252;-59
2022/02/03 10:20:01;;;;;;;4.55;4.15;;;7.40;99.90;;;;;;4943121;29;20197;-59
2022/02/03 10:22:32;;;;;;;3.30;3.08;;;7.50;99.90;;;;;;4957865;28;20271;-59
2022/02/03 10:25:09;;;;;;;3.85;3.55;;;7.50;99.90;;;;;;5001387;28;20275;-61
2022/02/03 10:27:49;;;;;;;3.00;2.80;;;7.40;99.90;;;;;;5009388;28;20194;-61
2022/02/03 10:30:25;;;;;;;3.72;3.38;;;7.40;99.90;;;;;;5002324;28;20606;-60
2022/02/03 10:32:56;;;;;;;3.10;2.85;;;7.40;99.90;;;;;;5003486;28;20207;-61
2022/02/03 10:35:37;;;;;;;3.05;2.83;;;7.40;99.90;;;;;;5009243;28;20314;-60
2022/02/03 10:44:38;;;;;;;4.00;3.70;;;7.40;99.90;;;;;;4973963;28;20203;-61
2022/02/03 10:53:24;;;;;;;2.75;2.55;;;7.40;99.90;;;;;;5002527;28;20206;-60
2022/02/03 10:56:14;;;;;;;3.03;2.83;;;7.40;99.90;;;;;;4999401;28;20287;-60
2022/02/03 10:58:56;;;;;;;3.60;3.30;;;7.40;99.90;;;;;;5011077;28;20211;-60
2022/02/03 11:02:02;;;;;;;3.00;2.80;;;7.40;99.90;;;;;;5012886;28;20333;-60
2022/02/03 11:07:28;;;;;;;3.00;2.80;;;7.40;99.90;;;;;;4960928;28;20192;-60
2022/02/03 11:10:07;;;;;;;2.90;2.70;;;7.40;99.90;;;;;;5007851;28;20323;-61
2022/02/03 11:12:51;;;;;;;3.28;2.75;;;7.40;99.90;;;;;;4999371;28;20207;-61
2022/02/03 11:15:24;;;;;;;2.95;2.75;;;7.50;99.90;;;;;;5010964;28;20214;-60
2022/02/03 11:17:58;;;;;;;2.90;2.70;;;7.50;99.90;;;;;;4999974;28;20271;-60
2022/02/03 11:20:32;;;;;;;5.53;2.97;;;7.50;99.90;;;;;;5009209;28;20199;-61
2022/02/03 11:23:17;;;;;;;2.90;2.70;;;7.50;99.90;;;;;;5008736;28;20195;-60
2022/02/03 11:26:06;;;;;;;3.22;3.03;;;7.40;99.90;;;;;;5007785;28;20211;-60
2022/02/03 11:28:58;;;;;;;3.40;2.92;;;7.50;99.90;;;;;;5005593;28;20194;-59
2022/02/03 11:35:26;;;;;;;2.80;2.60;;;7.40;99.90;;;;;;5016970;28;20195;-59
2022/02/03 12:01:31;;;;;;;2.95;2.22;;;7.20;99.90;;;;;;4983725;28;20221;-59
2022/02/03 12:10:31;;;;;;;2.55;1.95;;;7.20;99.90;;;;;;4935671;29;20216;-59
2022/02/03 12:16:11;;;;;;;1.90;1.80;;;7.20;99.90;;;;;;4941106;29;20237;-59
2022/02/03 12:19:00;;;;;;;2.53;2.22;;;7.20;99.90;;;;;;4938377;29;20214;-60
2022/02/03 12:21:40;;;;;;;2.70;1.60;;;7.20;99.90;;;;;;4936031;29;20214;-60
2022/02/03 12:24:27;;;;;;;1.90;1.80;;;7.20;99.90;;;;;;4942039;29;20209;-59
2022/02/03 12:27:05;;;;;;;1.83;1.70;;;7.20;99.90;;;;;;4941889;29;20301;-59
2022/02/03 12:29:42;;;;;;;1.80;1.70;;;7.20;99.90;;;;;;4942965;29;20212;-59
2022/02/03 12:32:22;;;;;;;2.40;2.20;;;7.10;99.90;;;;;;4941343;29;20206;-60
2022/02/03 12:38:14;;;;;;;1.90;1.80;;;7.10;99.90;;;;;;4952020;29;20688;-60
2022/02/03 12:40:54;;;;;;;2.75;2.25;;;7.10;99.90;;;;;;4964921;28;20237;-60
2022/02/03 12:43:32;;;;;;;2.30;1.83;;;7.10;99.90;;;;;;4990096;28;20239;-60
2022/02/03 12:46:05;;;;;;;2.90;2.35;;;7.10;99.90;;;;;;5005348;28;20301;-60
2022/02/03 12:48:38;;;;;;;2.00;1.77;;;7.10;99.90;;;;;;5012953;28;20200;-59
2022/02/03 12:51:08;;;;;;;1.45;1.35;;;7.00;99.90;;;;;;5007949;28;20202;-59
2022/02/03 12:53:40;;;;;;;1.80;1.70;;;7.00;99.90;;;;;;5009531;28;20196;-59
2022/02/03 12:56:12;;;;;;;1.90;1.80;;;7.10;99.90;;;;;;5012376;28;20206;-59
2022/02/03 12:58:45;;;;;;;1.98;1.88;;;7.10;99.90;;;;;;5007327;28;20203;-59
2022/02/03 13:01:20;;;;;;;2.70;2.50;;;7.10;99.90;;;;;;5019397;28;20207;-59
2022/02/03 13:03:52;;;;;;;3.05;2.28;;;7.10;99.90;;;;;;5007538;28;20207;-60
2022/02/03 13:06:26;;;;;;;2.22;2.03;;;7.10;99.90;;;;;;5013407;28;20231;-59
2022/02/03 13:08:59;;;;;;;2.22;2.10;;;7.10;99.90;;;;;;5005729;28;20212;-60
2022/02/03 13:11:38;;;;;;;2.75;1.50;;;7.10;99.90;;;;;;5010190;28;20290;-59
2022/02/03 13:14:22;;;;;;;1.98;1.85;;;7.20;99.90;;;;;;5008669;28;20199;-60
2022/02/03 13:16:58;;;;;;;2.22;1.60;;;7.20;99.90;;;;;;5001700;28;20214;-60
2022/02/03 13:19:46;;;;;;;1.88;1.60;;;7.20;99.90;;;;;;5001716;28;20200;-59
2022/02/03 13:22:22;;;;;;;1.75;1.65;;;7.20;99.90;;;;;;5004280;28;20203;-59
2022/02/03 13:25:06;;;;;;;2.10;1.90;;;7.20;99.90;;;;;;5005645;28;20194;-60
2022/02/03 13:27:50;;;;;;;4.00;1.67;;;7.20;99.90;;;;;;5007761;28;20223;-59
2022/02/03 13:30:45;;;;;;;1.98;1.75;;;7.20;99.90;;;;;;5014269;28;20196;-60
2022/02/03 13:33:20;;;;;;;2.25;2.00;;;7.10;99.90;;;;;;5007188;28;20620;-60
2022/02/03 13:35:55;;;;;;;1.85;1.75;;;7.10;99.90;;;;;;5004391;28;20204;-60
2022/02/03 13:38:39;;;;;;;2.65;2.45;;;7.10;99.90;;;;;;5005976;28;20212;-60
2022/02/03 13:41:15;;;;;;;2.70;2.35;;;7.10;99.90;;;;;;5003075;28;20203;-59
2022/02/03 13:43:48;;;;;;;4.47;3.50;;;7.10;99.90;;;;;;5010780;28;20298;-59
2022/02/03 13:46:28;;;;;;;3.95;3.03;;;7.10;99.90;;;;;;5007136;28;20315;-60
2022/02/03 13:49:00;;;;;;;3.80;3.50;;;7.00;99.90;;;;;;5012161;28;20198;-59
2022/02/03 13:51:36;;;;;;;3.72;3.40;;;6.90;99.90;;;;;;5004305;28;20223;-60
2022/02/03 13:54:35;;;;;;;4.65;3.83;;;6.90;99.90;;;;;;5011166;28;20219;-60
2022/02/03 14:12:50;;;;;;;4.97;4.55;;;6.90;99.90;;;;;;4903371;29;20215;-59
2022/02/03 14:15:08;;;;;;;5.68;4.72;;;6.90;99.90;;;;;;4903918;29;20207;-60
2022/02/03 14:20:48;;;;;;;4.90;4.40;;;7.00;99.90;;;;;;4900783;29;20226;-59
2022/02/03 14:29:01;;;;;;;4.30;3.90;;;7.00;99.90;;;;;;4903919;29;20203;-59
2022/02/03 14:31:34;;;;;;;4.30;3.78;;;7.00;99.90;;;;;;4890438;29;20192;-59
2022/02/03 14:34:09;;;;;;;4.70;4.30;;;7.00;99.90;;;;;;4905138;29;20207;-59
2022/02/03 14:36:42;;;;;;;4.70;4.20;;;6.90;99.90;;;;;;4903731;29;20194;-59
2022/02/03 14:39:18;;;;;;;5.35;4.60;;;7.00;99.90;;;;;;4932965;28;20521;-59
2022/02/03 14:41:50;;;;;;;4.32;3.92;;;6.90;99.90;;;;;;5017045;28;20206;-58
2022/02/03 14:44:20;;;;;;;4.95;4.43;;;6.90;99.90;;;;;;5007979;28;20204;-59
2022/02/03 14:46:53;;;;;;;4.22;3.85;;;6.90;99.90;;;;;;5003284;28;20303;-60
2022/02/03 14:49:24;;;;;;;4.82;4.32;;;6.90;99.90;;;;;;5001268;28;20261;-59
2022/02/03 14:52:09;;;;;;;4.78;3.63;;;6.90;99.90;;;;;;5003330;28;20199;-59
2022/02/03 15:00:20;;;;;;;3.50;3.20;;;6.90;99.90;;;;;;5003620;28;20207;-59
2022/02/03 15:02:53;;;;;;;3.38;3.08;;;6.80;99.90;;;;;;5001075;28;20196;-59
2022/02/03 15:05:27;;;;;;;4.60;2.80;;;6.80;99.90;;;;;;5000397;28;20242;-59
2022/02/03 15:07:59;;;;;;;3.00;2.80;;;6.70;99.90;;;;;;5004567;28;20216;-59
2022/02/03 15:10:42;;;;;;;3.17;2.88;;;6.70;99.90;;;;;;5000862;28;20204;-59
2022/02/03 15:13:29;;;;;;;3.17;2.58;;;6.70;99.90;;;;;;5000018;28;21104;-60
2022/02/03 15:16:00;;;;;;;3.90;3.33;;;6.80;99.90;;;;;;4997860;28;20267;-59
2022/02/03 15:18:33;;;;;;;3.45;3.00;;;6.70;99.90;;;;;;5001913;28;20212;-60
2022/02/03 15:21:07;;;;;;;3.45;3.17;;;6.80;99.90;;;;;;5000864;28;20283;-60
2022/02/03 15:23:39;;;;;;;3.55;3.08;;;6.80;99.90;;;;;;5002732;28;20254;-60
2022/02/03 15:26:09;;;;;;;3.00;2.80;;;6.70;99.90;;;;;;5003797;28;20185;-60
2022/02/03 15:28:40;;;;;;;2.72;2.42;;;6.70;99.90;;;;;;5000370;28;20223;-60
2022/02/03 15:31:12;;;;;;;4.28;3.17;;;6.70;99.90;;;;;;4999725;28;20317;-60
2022/02/03 15:33:51;;;;;;;3.47;3.15;;;6.70;99.90;;;;;;5001425;28;20203;-61
2022/02/03 15:36:22;;;;;;;5.80;3.70;;;6.80;99.90;;;;;;5000616;28;20208;-60
2022/02/03 15:38:55;;;;;;;3.53;2.92;;;6.80;99.90;;;;;;5010253;28;20207;-61
2022/02/03 15:41:28;;;;;;;3.83;3.40;;;6.80;99.90;;;;;;4998480;28;20224;-61
2022/02/03 15:44:00;;;;;;;3.35;3.05;;;6.80;99.90;;;;;;5000284;28;20200;-60
2022/02/03 15:46:36;;;;;;;3.85;3.45;;;6.80;99.90;;;;;;5002546;28;20223;-61
2022/02/03 15:49:20;;;;;;;6.75;3.60;;;6.80;99.90;;;;;;4999957;28;20258;-60
2022/02/03 16:03:16;;;;;;;4.38;3.65;;;7.20;99.90;;;;;;4993463;28;20208;-61
2022/02/03 16:17:01;;;;;;;4.38;3.78;;;7.30;99.90;;;;;;4998401;28;20228;-62
2022/02/03 16:19:41;;;;;;;3.75;3.45;;;7.40;99.90;;;;;;5011038;28;20203;-64
2022/02/03 16:22:22;;;;;;;4.80;3.33;;;7.50;99.90;;;;;;4987983;28;20264;-65
2022/02/03 16:24:58;;;;;;;3.50;3.20;;;7.60;99.90;;;;;;4972988;28;20215;-61
2022/02/03 16:52:42;;;;;;;3.08;2.78;;;8.30;99.90;;;;;;4985557;28;20209;-59
2022/02/03 16:55:19;;;;;;;3.80;3.28;;;8.40;99.90;;;;;;4985344;28;20196;-60
2022/02/03 16:57:52;;;;;;;3.30;3.00;;;8.40;99.90;;;;;;4986084;28;20200;-59
2022/02/03 17:00:24;;;;;;;3.75;3.35;;;8.50;99.90;;;;;;4983907;28;20185;-58
2022/02/03 17:03:14;;;;;;;17.85;7.78;;;8.60;99.90;;;;;;4974666;28;20207;-58
2022/02/03 17:05:46;;;;;;;3.17;2.88;;;8.50;99.90;;;;;;4969100;28;20231;-59
2022/02/03 17:08:17;;;;;;;3.85;3.55;;;8.40;99.90;;;;;;4988276;28;20257;-59
2022/02/03 17:10:49;;;;;;;6.53;3.13;;;8.60;99.90;;;;;;4988221;28;20264;-58
2022/02/03 17:13:21;;;;;;;2.97;2.35;;;8.50;99.90;;;;;;4985868;28;20240;-59
2022/02/03 17:15:52;;;;;;;2.67;2.47;;;8.40;99.90;;;;;;4985851;28;20211;-58
2022/02/03 17:18:22;;;;;;;4.40;2.78;;;8.40;99.90;;;;;;4985553;28;20220;-58
2022/02/03 17:20:53;;;;;;;3.53;3.05;;;8.40;99.90;;;;;;4986053;28;20209;-64
2022/02/03 17:23:27;;;;;;;60.97;12.52;;;8.30;99.90;;;;;;4988432;28;20227;-58
2022/02/03 17:26:08;;;;;;;3.58;3.28;;;8.60;99.90;;;;;;4994065;28;20296;-59
2022/02/03 17:28:47;;;;;;;2.35;2.15;;;8.70;99.90;;;;;;4984309;28;20244;-59
2022/02/03 17:31:24;;;;;;;2.70;2.50;;;8.60;99.90;;;;;;4986261;28;20206;-59
2022/02/03 17:54:35;;;;;;;2.53;2.17;;;9.10;99.90;;;;;;4949316;28;20219;-60
2022/02/03 18:11:00;;;;;;;3.63;2.13;;;10.30;99.90;;;;;;4983007;28;20446;-58
2022/02/03 18:30:22;;;;;;;2.40;2.20;;;10.80;99.90;;;;;;4983266;28;20456;-59
2022/02/03 18:47:57;;;;;;;3.10;2.90;;;10.50;99.90;;;;;;4986705;28;20458;-60
2022/02/03 18:50:22;;;;;;;2.90;2.30;;;10.60;99.90;;;;;;4984983;28;20493;-59
2022/02/03 18:53:04;;;;;;;4.10;3.70;;;10.50;99.90;;;;;;4982369;28;20455;-60
2022/02/03 18:55:42;;;;;;;2.70;2.50;;;10.50;99.90;;;;;;4985019;28;20491;-60
2022/02/03 18:58:27;;;;;;;2.73;2.53;;;10.40;99.90;;;;;;4984025;28;20478;-60
2022/02/03 19:01:18;;;;;;;3.77;3.47;;;10.20;99.90;;;;;;4982323;28;20468;-60
2022/02/03 19:15:38;;;;;;;3.73;3.43;;;10.30;99.90;;;;;;4904809;29;20550;-60
2022/02/03 19:21:53;;;;;;;3.43;3.13;;;10.80;99.90;;;;;;4904572;29;20477;-61
2022/02/03 19:24:36;;;;;;;2.53;2.33;;;10.70;99.90;;;;;;4893497;29;20573;-59
2022/02/03 20:01:49;;;;;;;3.73;3.43;;;10.70;99.90;;;;;;4869519;29;20508;-59
2022/02/03 20:04:35;;;;;;;4.37;3.97;;;10.80;99.90;;;;;;4908001;29;20471;-59
2022/02/03 20:07:18;;;;;;;3.60;3.30;;;10.90;99.90;;;;;;4926126;29;20455;-58
2022/02/03 20:10:05;;;;;;;6.30;3.47;;;10.90;99.90;;;;;;4927257;29;20540;-59
2022/02/03 20:12:36;;;;;;;4.60;3.90;;;11.20;99.90;;;;;;4927555;29;20494;-60
2022/02/03 20:15:09;;;;;;;4.10;3.80;;;11.30;99.90;;;;;;4925264;29;20463;-61
2022/02/03 20:17:40;;;;;;;3.90;3.60;;;11.20;99.90;;;;;;4925495;29;20490;-57
2022/02/03 20:20:12;;;;;;;3.90;3.50;;;11.00;99.90;;;;;;4936759;29;20469;-59
2022/02/03 20:22:44;;;;;;;4.03;3.73;;;11.00;99.90;;;;;;4924634;29;20458;-59
2022/02/03 20:25:16;;;;;;;3.80;3.50;;;11.10;99.90;;;;;;4925558;29;20519;-59
2022/02/03 20:27:47;;;;;;;3.07;2.90;;;11.00;99.90;;;;;;4985469;28;20445;-59
2022/02/03 20:30:19;;;;;;;3.00;2.80;;;11.10;99.90;;;;;;4985413;28;20498;-59
2022/02/03 20:32:50;;;;;;;3.90;3.60;;;11.00;99.90;;;;;;4974947;28;20474;-60
2022/02/03 20:35:21;;;;;;;3.77;3.47;;;11.10;99.90;;;;;;4984539;28;20475;-59
2022/02/03 20:37:52;;;;;;;3.23;2.80;;;11.00;99.90;;;;;;4978183;28;20452;-59
2022/02/03 20:40:23;;;;;;;3.87;2.83;;;11.10;99.90;;;;;;4986025;28;20642;-60
2022/02/03 20:42:54;;;;;;;3.13;2.83;;;11.30;99.90;;;;;;4986402;28;20528;-59
2022/02/03 20:45:26;;;;;;;2.70;2.53;;;11.50;99.90;;;;;;4985011;28;20472;-59
2022/02/03 20:47:58;;;;;;;3.30;3.00;;;11.80;99.90;;;;;;4982142;28;20448;-59
2022/02/03 20:50:29;;;;;;;3.30;3.00;;;11.70;99.90;;;;;;4981706;28;21015;-59
2022/02/03 20:52:59;;;;;;;3.10;2.63;;;11.70;99.90;;;;;;4985175;28;20539;-59
2022/02/03 20:55:33;;;;;;;3.40;2.70;;;11.90;99.90;;;;;;4985376;28;20456;-60
2022/02/03 20:58:04;;;;;;;2.93;2.70;;;12.00;99.90;;;;;;4985472;28;20443;-60
2022/02/03 21:00:42;;;;;;;4.43;3.10;;;12.30;99.90;;;;;;4988206;28;20452;-60
2022/02/03 21:03:19;;;;;;;3.20;3.00;;;12.50;99.90;;;;;;4985698;28;20452;-58
2022/02/03 21:05:50;;;;;;;3.20;3.00;;;12.90;99.90;;;;;;4985846;28;20502;-58
2022/02/03 21:08:28;;;;;;;3.47;2.83;;;13.20;99.90;;;;;;4982408;28;20452;-58
2022/02/03 21:10:59;;;;;;;3.80;2.70;;;13.30;99.90;;;;;;4987494;28;20486;-59
2022/02/03 21:13:31;;;;;;;2.50;2.30;;;13.10;99.90;;;;;;4992619;28;20453;-60
2022/02/03 21:16:06;;;;;;;2.70;2.50;;;13.10;99.90;;;;;;4988371;28;20452;-59
2022/02/03 21:18:40;;;;;;;2.43;2.27;;;13.20;99.90;;;;;;4981171;28;20465;-59
2022/02/03 21:21:11;;;;;;;2.87;2.67;;;13.20;99.90;;;;;;4975284;28;22534;-56
2022/02/03 21:23:42;;;;;;;2.33;2.13;;;13.00;99.90;;;;;;4983150;28;20511;-59
2022/02/03 21:26:19;;;;;;;2.30;2.10;;;12.80;99.90;;;;;;4979059;28;20763;-59
2022/02/03 21:28:50;;;;;;;2.30;2.20;;;12.80;99.90;;;;;;5001055;28;20443;-59
2022/02/03 21:31:22;;;;;;;2.57;2.47;;;12.60;99.90;;;;;;4982557;28;20554;-58
2022/02/03 21:33:56;;;;;;;2.53;2.33;;;12.60;99.90;;;;;;4985211;28;20456;-59
2022/02/03 21:36:34;;;;;;;2.30;2.10;;;12.50;99.90;;;;;;4976097;28;20452;-59
2022/02/03 21:39:05;;;;;;;3.27;2.60;;;12.30;99.90;;;;;;4984404;28;20463;-59
2022/02/03 21:41:36;;;;;;;2.60;2.50;;;12.00;99.90;;;;;;4985407;28;20448;-60
2022/02/03 21:44:12;;;;;;;2.90;2.70;;;11.80;99.90;;;;;;4991612;28;20452;-59
2022/02/03 21:46:45;;;;;;;3.10;2.40;;;11.60;99.90;;;;;;4985076;28;20452;-59
2022/02/03 21:49:15;;;;;;;3.20;2.50;;;11.60;99.90;;;;;;4986456;28;20790;-59